createdAt,value
2023-05-09T00:01:24.639Z,101771.59
2023-05-09T00:03:52.541Z,101776.91
2023-05-09T00:06:20.519Z,101770.66
2023-05-09T00:08:48.531Z,101770.69
2023-05-09T00:11:16.070Z,101764.59
2023-05-09T00:13:44.253Z,101768.03
2023-05-09T00:16:12.081Z,101764.59
2023-05-09T00:18:42.259Z,101762.00
2023-05-09T00:21:11.129Z,101771.59
2023-05-09T00:23:39.484Z,101771.56
2023-05-09T00:26:07.008Z,101773.28
2023-05-09T00:28:34.584Z,101763.75
2023-05-09T00:31:02.119Z,101764.63
2023-05-09T00:33:29.714Z,101757.69
2023-05-09T00:35:57.316Z,101748.97
2023-05-09T00:38:24.963Z,101754.19
2023-05-09T00:40:52.663Z,101756.78
2023-05-09T00:43:20.133Z,101758.50
2023-05-09T00:45:47.737Z,101750.75
2023-05-09T00:48:16.476Z,101750.72
2023-05-09T00:50:44.051Z,101741.97
2023-05-09T00:53:11.556Z,101737.63
2023-05-09T00:55:39.108Z,101741.97
2023-05-09T00:58:06.681Z,101735.88
2023-05-09T01:00:34.152Z,101728.13
2023-05-09T01:03:01.711Z,101728.06
2023-05-09T01:05:39.155Z,101714.06
2023-05-09T01:08:32.545Z,101721.03
2023-05-09T01:11:11.601Z,101715.84
2023-05-09T01:13:53.457Z,101714.06
2023-05-09T01:16:27.969Z,101708.78
2023-05-09T01:19:01.432Z,101710.53
2023-05-09T01:21:32.358Z,101708.88
2023-05-09T01:24:05.679Z,101703.59
2023-05-09T01:27:03.417Z,101701.81
2023-05-09T01:29:36.774Z,101694.81
2023-05-09T01:32:09.557Z,101685.34
2023-05-09T01:34:40.839Z,101687.91
2023-05-09T01:37:09.363Z,101688.84
2023-05-09T01:39:41.267Z,101694.03
2023-05-09T01:42:12.592Z,101694.03
2023-05-09T01:44:43.570Z,101680.91
2023-05-09T01:47:12.777Z,101671.38
2023-05-09T01:49:42.413Z,101665.22
2023-05-09T01:52:13.683Z,101668.63
2023-05-09T01:54:41.545Z,101659.03
2023-05-09T01:57:11.373Z,101653.03
2023-05-09T01:59:42.426Z,101655.66
2023-05-09T02:02:10.729Z,101653.84
2023-05-09T02:04:39.822Z,101654.78
2023-05-09T02:07:09.169Z,101658.25
2023-05-09T02:09:36.874Z,101648.69
2023-05-09T02:12:05.185Z,101647.81
2023-05-09T02:14:32.888Z,101644.38
2023-05-09T02:17:06.176Z,101643.50
2023-05-09T02:19:37.374Z,101643.53
2023-05-09T02:22:05.721Z,101641.78
2023-05-09T02:24:35.104Z,101647.03
2023-05-09T02:27:05.249Z,101647.91
2023-05-09T02:29:43.652Z,101642.69
2023-05-09T02:32:17.927Z,101645.31
2023-05-09T02:34:47.566Z,101640.09
2023-05-09T02:37:16.366Z,101646.25
2023-05-09T02:39:44.036Z,101651.47
2023-05-09T02:42:13.085Z,101636.63
2023-05-09T02:44:40.896Z,101634.03
2023-05-09T02:47:08.537Z,101642.72
2023-05-09T02:49:36.078Z,101630.53
2023-05-09T02:52:03.821Z,101637.47
2023-05-09T02:54:31.285Z,101632.25
2023-05-09T02:56:59.221Z,101618.31
2023-05-09T02:59:27.090Z,101613.06
2023-05-09T03:01:54.646Z,101615.72
2023-05-09T03:04:22.280Z,101608.78
2023-05-09T03:06:49.862Z,101616.66
2023-05-09T03:09:17.483Z,101614.94
2023-05-09T03:11:45.160Z,101613.16
2023-05-09T03:14:14.828Z,101606.22
2023-05-09T03:16:42.520Z,101603.75
2023-05-09T03:19:10.048Z,101597.56
2023-05-09T03:21:37.558Z,101591.50
2023-05-09T03:24:05.300Z,101597.69
2023-05-09T03:26:32.793Z,101594.16
2023-05-09T03:29:00.292Z,101597.69
2023-05-09T03:31:28.017Z,101592.44
2023-05-09T03:33:55.664Z,101590.75
2023-05-09T03:36:23.316Z,101569.09
2023-05-09T03:38:50.891Z,101575.16
2023-05-09T03:41:18.995Z,101580.34
2023-05-09T03:43:46.665Z,101576.91
2023-05-09T03:46:14.517Z,101581.31
2023-05-09T03:48:42.040Z,101567.38
2023-05-09T03:51:09.629Z,101563.97
2023-05-09T03:53:37.178Z,101568.25
2023-05-09T03:56:04.893Z,101568.28
2023-05-09T03:58:32.390Z,101563.03
2023-05-09T04:00:59.874Z,101556.06
2023-05-09T04:03:27.943Z,101573.50
2023-05-09T04:05:55.891Z,101553.47
2023-05-09T04:08:23.897Z,101559.63
2023-05-09T04:10:52.427Z,101557.91
2023-05-09T04:13:19.979Z,101558.72
2023-05-09T04:15:47.533Z,101557.84
2023-05-09T04:18:15.087Z,101553.50
2023-05-09T04:20:42.568Z,101552.59
2023-05-09T04:23:10.035Z,101556.09
2023-05-09T04:25:37.593Z,101561.38
2023-05-09T04:28:05.794Z,101555.34
2023-05-09T04:30:33.507Z,101554.41
2023-05-09T04:33:01.126Z,101550.91
2023-05-09T04:35:28.680Z,101547.44
2023-05-09T04:37:56.409Z,101540.44
2023-05-09T04:40:26.636Z,101540.44
2023-05-09T04:42:54.565Z,101536.00
2023-05-09T04:45:22.083Z,101538.50
2023-05-09T04:47:49.632Z,101528.09
2023-05-09T04:50:17.580Z,101527.06
2023-05-09T04:52:45.075Z,101522.66
2023-05-09T04:55:12.816Z,101524.56
2023-05-09T04:57:40.510Z,101522.66
2023-05-09T05:00:11.305Z,101524.34
2023-05-09T05:02:39.012Z,101516.44
2023-05-09T05:05:11.944Z,101512.84
2023-05-09T05:07:40.508Z,101505.78
2023-05-09T05:10:08.620Z,101506.63
2023-05-09T05:12:36.239Z,101507.47
2023-05-09T05:15:03.830Z,101499.59
2023-05-09T05:17:31.561Z,101505.03
2023-05-09T05:19:59.184Z,101501.47
2023-05-09T05:22:26.681Z,101489.97
2023-05-09T05:24:54.321Z,101472.38
2023-05-09T05:27:21.824Z,101474.81
2023-05-09T05:29:49.438Z,101476.38
2023-05-09T05:32:16.927Z,101475.53
2023-05-09T05:34:44.552Z,101471.03
2023-05-09T05:37:12.144Z,101459.75
2023-05-09T05:39:39.706Z,101469.84
2023-05-09T05:42:07.308Z,101467.66
2023-05-09T05:44:34.879Z,101463.75
2023-05-09T05:47:02.405Z,101457.47
2023-05-09T05:49:29.920Z,101454.97
2023-05-09T05:51:57.449Z,101456.06
2023-05-09T05:54:25.119Z,101451.50
2023-05-09T05:56:52.724Z,101436.78
2023-05-09T05:59:20.277Z,101432.41
2023-05-09T06:01:48.063Z,101434.16
2023-05-09T06:04:15.860Z,101440.97
2023-05-09T06:06:43.836Z,101434.19
2023-05-09T06:09:11.492Z,101428.75
2023-05-09T06:11:39.255Z,101431.31
2023-05-09T06:14:06.944Z,101422.00
2023-05-09T06:16:34.742Z,101416.72
2023-05-09T06:19:02.358Z,101428.88
2023-05-09T06:21:30.271Z,101418.41
2023-05-09T06:24:09.848Z,101430.56
2023-05-09T06:26:40.111Z,101427.97
2023-05-09T06:29:07.918Z,101425.44
2023-05-09T06:31:38.672Z,101423.84
2023-05-09T06:34:06.776Z,101420.31
2023-05-09T06:36:34.873Z,101423.78
2023-05-09T06:39:03.039Z,101414.19
2023-05-09T06:41:30.718Z,101410.09
2023-05-09T06:43:58.292Z,101413.50
2023-05-09T06:46:25.893Z,101407.50
2023-05-09T06:48:53.499Z,101406.63
2023-05-09T06:51:21.129Z,101405.19
2023-05-09T06:53:48.703Z,101407.63
2023-05-09T06:56:18.383Z,101418.19
2023-05-09T06:58:47.502Z,101406.78
2023-05-09T07:01:15.254Z,101405.09
2023-05-09T07:03:42.794Z,101409.41
2023-05-09T07:06:10.630Z,101405.22
2023-05-09T07:08:38.184Z,101398.19
2023-05-09T07:11:06.075Z,101398.28
2023-05-09T07:13:33.842Z,101399.88
2023-05-09T07:16:01.418Z,101394.56
2023-05-09T07:18:29.809Z,101391.09
2023-05-09T07:20:57.478Z,101391.09
2023-05-09T07:23:26.036Z,101392.09
2023-05-09T07:26:00.148Z,101379.78
2023-05-09T07:28:28.180Z,101382.41
2023-05-09T07:30:58.850Z,101380.75
2023-05-09T07:33:26.520Z,101384.25
2023-05-09T07:35:54.054Z,101377.19
2023-05-09T07:38:21.680Z,101373.56
2023-05-09T07:40:49.284Z,101381.28
2023-05-09T07:43:16.832Z,101367.53
2023-05-09T07:45:44.956Z,101372.53
2023-05-09T07:48:12.611Z,101363.75
2023-05-09T07:50:41.117Z,101364.81
2023-05-09T07:53:08.674Z,101364.69
2023-05-09T07:55:36.663Z,101364.56
2023-05-09T07:58:04.200Z,101359.44
2023-05-09T08:00:31.695Z,101354.06
2023-05-09T08:02:59.672Z,101335.25
2023-05-09T08:05:27.998Z,101349.88
2023-05-09T08:07:55.533Z,101340.25
2023-05-09T08:10:23.519Z,101339.63
2023-05-09T08:12:51.420Z,101336.97
2023-05-09T08:15:19.333Z,101340.47
2023-05-09T08:17:46.932Z,101329.81
2023-05-09T08:20:14.787Z,101320.97
2023-05-09T08:22:42.408Z,101328.00
2023-05-09T08:25:10.432Z,101319.38
2023-05-09T08:27:37.956Z,101321.41
2023-05-09T08:30:06.495Z,101311.75
2023-05-09T08:32:34.089Z,101307.41
2023-05-09T08:35:01.593Z,101303.81
2023-05-09T08:37:29.337Z,101307.34
2023-05-09T08:39:57.000Z,101312.47
2023-05-09T08:42:26.649Z,101297.66
2023-05-09T08:44:54.277Z,101298.59
2023-05-09T08:47:23.764Z,101287.97
2023-05-09T08:49:52.591Z,101291.44
2023-05-09T08:52:21.177Z,101292.59
2023-05-09T08:54:48.954Z,101287.22
2023-05-09T08:57:16.736Z,101294.84
2023-05-09T08:59:46.571Z,101279.44
2023-05-09T09:02:15.933Z,101281.16
2023-05-09T09:04:45.077Z,101268.09
2023-05-09T09:07:14.948Z,101275.03
2023-05-09T09:09:47.746Z,101278.47
2023-05-09T09:12:17.493Z,101280.97
2023-05-09T09:14:53.686Z,101280.00
2023-05-09T09:17:24.423Z,101277.06
2023-05-09T09:19:57.268Z,101269.22
2023-05-09T09:22:25.998Z,101264.97
2023-05-09T09:24:53.671Z,101266.88
2023-05-09T09:27:21.589Z,101259.97
2023-05-09T09:29:49.114Z,101251.06
2023-05-09T09:32:18.516Z,101253.59
2023-05-09T09:34:50.905Z,101263.97
2023-05-09T09:37:24.839Z,101260.16
2023-05-09T09:39:56.444Z,101250.19
2023-05-09T09:42:24.108Z,101233.38
2023-05-09T09:45:12.245Z,101250.91
2023-05-09T09:47:39.900Z,101246.41
2023-05-09T09:50:16.111Z,101242.78
2023-05-09T09:52:55.877Z,101243.47
2023-05-09T09:55:25.525Z,101240.03
2023-05-09T09:57:53.779Z,101240.19
2023-05-09T10:00:27.310Z,101242.09
2023-05-09T10:03:00.071Z,101240.03
2023-05-09T10:05:28.914Z,101233.09
2023-05-09T10:08:04.684Z,101232.47
2023-05-09T10:10:36.938Z,101234.03
2023-05-09T10:13:05.486Z,101227.41
2023-05-09T10:15:45.148Z,101230.88
2023-05-09T10:18:26.423Z,101232.47
2023-05-09T10:20:55.017Z,101226.63
2023-05-09T10:23:24.455Z,101226.38
2023-05-09T10:26:19.541Z,101226.38
2023-05-09T10:28:49.761Z,101230.97
2023-05-09T10:31:26.171Z,101220.03
2023-05-09T10:33:55.869Z,101213.13
2023-05-09T10:36:24.905Z,101214.13
2023-05-09T10:38:55.138Z,101212.34
2023-05-09T10:41:24.003Z,101212.50
2023-05-09T10:43:52.069Z,101207.81
2023-05-09T10:46:20.169Z,101191.16
2023-05-09T10:48:49.211Z,101182.50
2023-05-09T10:51:17.603Z,101191.75
2023-05-09T10:53:45.918Z,101189.38
2023-05-09T10:56:39.870Z,101185.63
2023-05-09T10:59:07.428Z,101181.28
2023-05-09T11:01:39.982Z,101175.41
2023-05-09T11:04:11.417Z,101177.34
2023-05-09T11:06:48.987Z,101176.31
2023-05-09T11:09:38.674Z,101169.16
2023-05-09T11:12:06.310Z,101173.22
2023-05-09T11:14:34.813Z,101174.00
2023-05-09T11:17:10.197Z,101164.56
2023-05-09T11:19:46.698Z,101159.50
2023-05-09T11:22:27.524Z,101165.50
2023-05-09T11:25:04.858Z,101160.13
2023-05-09T11:27:52.716Z,101147.59
2023-05-09T11:30:21.958Z,101138.56
2023-05-09T11:32:58.842Z,101147.25
2023-05-09T11:35:27.930Z,101144.09
2023-05-09T11:38:07.079Z,101137.97
2023-05-09T11:40:35.703Z,101143.53
2023-05-09T11:43:03.576Z,101142.44
2023-05-09T11:45:33.582Z,101142.09
2023-05-09T11:48:02.158Z,101142.09
2023-05-09T11:50:30.251Z,101140.44
2023-05-09T11:52:58.462Z,101129.91
2023-05-09T11:55:29.805Z,101130.88
2023-05-09T11:57:57.449Z,101128.44
2023-05-09T12:00:26.834Z,101124.97
2023-05-09T12:02:54.876Z,101119.41
2023-05-09T12:05:24.053Z,101114.97
2023-05-09T12:07:52.446Z,101115.16
2023-05-09T12:10:22.003Z,101114.47
2023-05-09T12:12:51.745Z,101108.25
2023-05-09T12:15:21.381Z,101109.06
2023-05-09T12:18:01.400Z,101110.50
2023-05-09T12:20:28.982Z,101115.50
2023-05-09T12:22:56.760Z,101100.78
2023-05-09T12:25:24.254Z,101101.81
2023-05-09T12:27:54.620Z,101103.66
2023-05-09T12:30:22.437Z,101108.44
2023-05-09T12:32:50.088Z,101096.22
2023-05-09T12:35:17.802Z,101090.81
2023-05-09T12:37:57.193Z,101093.81
2023-05-09T12:40:25.709Z,101087.16
2023-05-09T12:42:57.388Z,101085.31
2023-05-09T12:45:25.028Z,101075.69
2023-05-09T12:47:54.282Z,101075.16
2023-05-09T12:50:22.274Z,101076.50
2023-05-09T12:53:02.739Z,101072.09
2023-05-09T12:55:31.770Z,101069.84
2023-05-09T12:58:04.028Z,101074.78
2023-05-09T13:00:42.802Z,101070.97
2023-05-09T13:03:42.615Z,101071.69
2023-05-09T13:06:14.748Z,101063.34
2023-05-09T13:08:42.429Z,101059.91
2023-05-09T13:11:16.451Z,101055.91
2023-05-09T13:13:44.945Z,101056.38
2023-05-09T13:16:14.297Z,101062.63
2023-05-09T13:18:44.300Z,101053.34
2023-05-09T13:21:11.917Z,101053.13
2023-05-09T13:23:39.382Z,101040.81
2023-05-09T13:26:06.968Z,101038.72
2023-05-09T13:28:34.521Z,101032.88
2023-05-09T13:31:02.984Z,101041.84
2023-05-09T13:33:30.630Z,101042.72
2023-05-09T13:35:58.128Z,101045.41
2023-05-09T13:38:25.823Z,101033.25
2023-05-09T13:40:53.477Z,101034.03
2023-05-09T13:43:22.102Z,101030.38
2023-05-09T13:45:49.886Z,101037.31
2023-05-09T13:48:17.614Z,101039.31
2023-05-09T13:50:45.156Z,101039.06
2023-05-09T13:53:12.690Z,101035.50
2023-05-09T13:55:40.299Z,101025.91
2023-05-09T13:58:07.816Z,101024.94
2023-05-09T14:00:35.524Z,101020.47
2023-05-09T14:03:03.578Z,101017.75
2023-05-09T14:05:34.529Z,101014.13
2023-05-09T14:08:02.188Z,101009.16
2023-05-09T14:10:29.914Z,101015.34
2023-05-09T14:12:57.629Z,101004.94
2023-05-09T14:15:25.197Z,101006.97
2023-05-09T14:17:52.795Z,101016.81
2023-05-09T14:20:20.402Z,101006.28
2023-05-09T14:22:48.289Z,101004.34
2023-05-09T14:25:15.989Z,101001.66
2023-05-09T14:27:43.491Z,101005.31
2023-05-09T14:30:11.535Z,100987.78
2023-05-09T14:32:39.043Z,100989.91
2023-05-09T14:35:07.180Z,100995.00
2023-05-09T14:37:35.908Z,100987.69
2023-05-09T14:40:05.809Z,100983.59
2023-05-09T14:42:33.689Z,100977.44
2023-05-09T14:45:01.228Z,100985.88
2023-05-09T14:47:28.797Z,100975.38
2023-05-09T14:49:56.347Z,100975.97
2023-05-09T14:52:23.977Z,100970.41
2023-05-09T14:54:51.495Z,100976.03
2023-05-09T14:57:19.107Z,100967.03
2023-05-09T14:59:46.671Z,100961.41
2023-05-09T15:02:14.221Z,100956.22
2023-05-09T15:04:43.831Z,100950.91
2023-05-09T15:07:11.840Z,100953.38
2023-05-09T15:09:39.438Z,100956.16
2023-05-09T15:12:07.130Z,100951.22
2023-05-09T15:14:34.669Z,100945.31
2023-05-09T15:17:04.271Z,100951.41
2023-05-09T15:19:32.524Z,100947.56
2023-05-09T15:22:00.945Z,100942.41
2023-05-09T15:24:28.587Z,100946.84
2023-05-09T15:26:56.166Z,100937.88
2023-05-09T15:29:23.921Z,100945.88
2023-05-09T15:31:51.454Z,100945.69
2023-05-09T15:34:18.942Z,100947.06
2023-05-09T15:36:46.624Z,100948.97
2023-05-09T15:39:14.203Z,100945.63
2023-05-09T15:41:42.013Z,100948.19
2023-05-09T15:44:09.524Z,100939.09
2023-05-09T15:46:37.710Z,100952.22
2023-05-09T15:49:05.278Z,100947.66
2023-05-09T15:51:32.765Z,100944.78
2023-05-09T15:54:00.290Z,100942.69
2023-05-09T15:56:27.806Z,100948.00
2023-05-09T15:58:55.320Z,100939.56
2023-05-09T16:01:22.873Z,100931.03
2023-05-09T16:03:50.695Z,100929.16
2023-05-09T16:06:18.566Z,100928.41
2023-05-09T16:08:46.688Z,100925.47
2023-05-09T16:11:14.251Z,100920.72
2023-05-09T16:13:41.872Z,100915.97
2023-05-09T16:16:09.477Z,100920.47
2023-05-09T16:18:37.046Z,100924.41
2023-05-09T16:21:05.313Z,100915.09
2023-05-09T16:23:32.935Z,100925.09
2023-05-09T16:26:00.456Z,100912.94
2023-05-09T16:28:29.498Z,100906.47
2023-05-09T16:30:57.095Z,100909.50
2023-05-09T16:33:24.624Z,100902.38
2023-05-09T16:35:52.136Z,100906.13
2023-05-09T16:38:19.918Z,100898.53
2023-05-09T16:40:47.421Z,100901.16
2023-05-09T16:43:16.358Z,100901.69
2023-05-09T16:45:44.172Z,100897.84
2023-05-09T16:48:11.714Z,100897.22
2023-05-09T16:50:43.104Z,100890.31
2023-05-09T16:53:11.321Z,100890.03
2023-05-09T16:55:39.887Z,100888.56
2023-05-09T16:58:07.704Z,100881.03
2023-05-09T17:00:35.289Z,100884.63
2023-05-09T17:03:03.278Z,100888.25
2023-05-09T17:05:30.882Z,100876.81
2023-05-09T17:07:58.378Z,100879.28
2023-05-09T17:10:26.092Z,100889.88
2023-05-09T17:12:53.617Z,100882.75
2023-05-09T17:15:21.249Z,100886.41
2023-05-09T17:17:48.870Z,100887.03
2023-05-09T17:20:16.823Z,100875.97
2023-05-09T17:22:44.550Z,100881.88
2023-05-09T17:25:12.463Z,100883.66
2023-05-09T17:27:41.645Z,100878.56
2023-05-09T17:30:10.009Z,100881.03
2023-05-09T17:32:37.519Z,100879.00
2023-05-09T17:35:05.996Z,100884.19
2023-05-09T17:37:33.464Z,100878.53
2023-05-09T17:40:01.156Z,100879.28
2023-05-09T17:42:28.765Z,100873.78
2023-05-09T17:44:56.476Z,100877.78
2023-05-09T17:47:24.096Z,100877.63
2023-05-09T17:49:52.136Z,100881.56
2023-05-09T17:52:19.689Z,100870.63
2023-05-09T17:54:47.283Z,100877.91
2023-05-09T17:57:14.821Z,100874.56
2023-05-09T17:59:42.331Z,100874.41
2023-05-09T18:02:09.867Z,100870.34
2023-05-09T18:04:37.486Z,100882.50
2023-05-09T18:07:05.085Z,100883.38
2023-05-09T18:09:32.595Z,100879.84
2023-05-09T18:12:00.180Z,100873.84
2023-05-09T18:14:28.449Z,100875.44
2023-05-09T18:16:56.062Z,100879.03
2023-05-09T18:19:23.641Z,100874.63
2023-05-09T18:21:51.199Z,100887.63
2023-05-09T18:24:20.395Z,100877.13
2023-05-09T18:26:49.226Z,100883.34
2023-05-09T18:29:17.303Z,100876.25
2023-05-09T18:31:44.925Z,100873.03
2023-05-09T18:34:12.953Z,100885.38
2023-05-09T18:36:40.628Z,100880.09
2023-05-09T18:39:08.854Z,100873.16
2023-05-09T18:41:36.417Z,100883.66
2023-05-09T18:44:04.208Z,100880.13
2023-05-09T18:46:33.684Z,100885.31
2023-05-09T18:49:03.040Z,100885.31
2023-05-09T18:51:31.517Z,100887.38
2023-05-09T18:53:59.187Z,100876.16
2023-05-09T18:56:26.750Z,100880.63
2023-05-09T18:58:54.616Z,100880.03
2023-05-09T19:01:24.291Z,100884.22
2023-05-09T19:03:54.350Z,100875.66
2023-05-09T19:06:24.015Z,100883.56
2023-05-09T19:08:52.118Z,100878.34
2023-05-09T19:11:19.881Z,100878.59
2023-05-09T19:13:49.338Z,100886.41
2023-05-09T19:16:19.557Z,100887.50
2023-05-09T19:18:47.154Z,100889.94
2023-05-09T19:21:15.666Z,100886.50
2023-05-09T19:23:44.597Z,100892.56
2023-05-09T19:26:12.092Z,100888.41
2023-05-09T19:28:39.784Z,100891.94
2023-05-09T19:31:07.302Z,100897.31
2023-05-09T19:33:34.888Z,100900.84
2023-05-09T19:36:02.383Z,100897.47
2023-05-09T19:38:29.965Z,100903.50
2023-05-09T19:40:59.188Z,100904.34
2023-05-09T19:43:26.743Z,100900.06
2023-05-09T19:45:54.399Z,100911.44
2023-05-09T19:48:22.042Z,100902.63
2023-05-09T19:50:49.741Z,100904.50
2023-05-09T19:53:17.227Z,100910.59
2023-05-09T19:55:46.886Z,100913.25
2023-05-09T19:58:17.467Z,100916.66
2023-05-09T20:00:45.551Z,100912.31
2023-05-09T20:03:13.314Z,100921.81
2023-05-09T20:05:42.170Z,100927.97
2023-05-09T20:08:09.776Z,100922.00
2023-05-09T20:10:37.511Z,100922.00
2023-05-09T20:13:05.184Z,100932.53
2023-05-09T20:15:32.831Z,100923.88
2023-05-09T20:18:03.545Z,100925.56
2023-05-09T20:20:32.739Z,100917.00
2023-05-09T20:23:00.780Z,100924.84
2023-05-09T20:25:28.690Z,100938.69
2023-05-09T20:27:56.450Z,100932.66
2023-05-09T20:30:24.063Z,100932.72
2023-05-09T20:32:52.486Z,100936.06
2023-05-09T20:35:20.312Z,100936.00
2023-05-09T20:37:47.978Z,100936.00
2023-05-09T20:40:15.912Z,100931.69
2023-05-09T20:42:43.763Z,100929.16
2023-05-09T20:45:11.538Z,100934.38
2023-05-09T20:47:39.611Z,100930.06
2023-05-09T20:50:08.093Z,100933.56
2023-05-09T20:52:35.714Z,100939.53
2023-05-09T20:55:03.298Z,100933.38
2023-05-09T20:57:30.917Z,100939.56
2023-05-09T20:59:58.523Z,100937.03
2023-05-09T21:02:26.203Z,100931.97
2023-05-09T21:04:53.861Z,100928.41
2023-05-09T21:07:21.694Z,100929.31
2023-05-09T21:09:50.711Z,100927.53
2023-05-09T21:12:18.628Z,100924.06
2023-05-09T21:14:46.244Z,100926.69
2023-05-09T21:17:13.937Z,100918.84
2023-05-09T21:19:41.512Z,100924.13
2023-05-09T21:22:09.278Z,100922.41
2023-05-09T21:24:36.860Z,100915.41
2023-05-09T21:27:04.828Z,100911.19
2023-05-09T21:29:32.458Z,100913.63
2023-05-09T21:32:00.021Z,100913.66
2023-05-09T21:34:27.594Z,100910.19
2023-05-09T21:36:55.216Z,100912.78
2023-05-09T21:39:22.770Z,100916.34
2023-05-09T21:41:50.322Z,100917.94
2023-05-09T21:44:17.904Z,100913.66
2023-05-09T21:46:46.385Z,100912.72
2023-05-09T21:49:16.577Z,100912.66
2023-05-09T21:51:44.253Z,100909.22
2023-05-09T21:54:11.883Z,100910.06
2023-05-09T21:56:39.734Z,100905.75
2023-05-09T21:59:07.230Z,100897.03
2023-05-09T22:01:34.836Z,100893.56
2023-05-09T22:04:02.978Z,100901.31
2023-05-09T22:06:31.284Z,100890.94
2023-05-09T22:08:58.781Z,100901.47
2023-05-09T22:11:26.257Z,100899.78
2023-05-09T22:13:53.745Z,100906.72
2023-05-09T22:16:22.362Z,100904.13
2023-05-09T22:18:49.987Z,100891.03
2023-05-09T22:21:17.485Z,100904.13
2023-05-09T22:23:44.980Z,100886.72
2023-05-09T22:26:12.543Z,100894.56
2023-05-09T22:28:40.066Z,100887.53
2023-05-09T22:31:08.327Z,100892.78
2023-05-09T22:33:35.880Z,100890.19
2023-05-09T22:36:03.428Z,100886.66
2023-05-09T22:38:31.080Z,100882.25
2023-05-09T22:40:58.580Z,100880.53
2023-05-09T22:43:28.875Z,100876.34
2023-05-09T22:46:04.308Z,100886.75
2023-05-09T22:48:31.799Z,100884.19
2023-05-09T22:50:59.272Z,100887.69
2023-05-09T22:53:26.799Z,100891.84
2023-05-09T22:55:54.751Z,100887.44
2023-05-09T22:58:22.559Z,100896.94
2023-05-09T23:00:50.169Z,100886.34
2023-05-09T23:03:17.842Z,100888.81
2023-05-09T23:05:45.435Z,100887.34
2023-05-09T23:08:12.907Z,100886.53
2023-05-09T23:10:40.419Z,100883.91
2023-05-09T23:13:08.075Z,100885.78
2023-05-09T23:15:36.333Z,100889.25
2023-05-09T23:18:04.071Z,100885.63
2023-05-09T23:20:31.532Z,100887.34
2023-05-09T23:22:59.047Z,100889.19
2023-05-09T23:25:26.982Z,100887.44
2023-05-09T23:27:54.624Z,100880.59
2023-05-09T23:30:22.177Z,100885.81
2023-05-09T23:32:49.758Z,100885.78
2023-05-09T23:35:17.632Z,100884.09
2023-05-09T23:37:45.158Z,100888.41
2023-05-09T23:40:13.570Z,100890.16
2023-05-09T23:42:41.248Z,100884.88
2023-05-09T23:45:09.463Z,100873.66
2023-05-09T23:47:37.241Z,100884.09
2023-05-09T23:50:05.009Z,100885.88
2023-05-09T23:52:32.632Z,100887.66
2023-05-09T23:55:00.174Z,100880.63
2023-05-09T23:57:27.741Z,100879.81
2023-05-09T23:59:55.224Z,100878.06
